Terminal Aerodrome Forecast
Issued by NWS

Home | Current Version | Previous Version | Text Only | Print | Product List | Glossary On
Versions: 1 2 3 4 5 6 7 8 9 10 11 12 13 14 15 16 17 18 19 20 21
832
FTUS44 KOHX 191008 AAB
TAFCKV
TAF AMD
KCKV 191008Z 1910/2006 33014G26KT P6SM OVC035
     FM191400 35014G25KT P6SM OVC030
     FM192000 01010G17KT P6SM BKN100
     FM200100 01007KT P6SM SKC=

USA.gov is the U.S. government's official web portal to all federal, state and local government web resources and services.